Have a Safe July 4th! 

Flight Track Log - Related Links

Times and Time Zones

All times are in EDT time to prevent confusion due to time zone crossing. See the FDX708 flight status page for this flight to view local times or setup timezone preferences in your user account.

Time Position Orientation Groundspeed Altitude Reporting Facility
EDT Latitude Longitude Course Direction KTS MPH feet Rate Location/Type
Thu 03:55:13 PM 35.0167 -89.9667 180° South 160 184 1,100  Level KMEM
Thu 03:55:51 PM 35.0000 -89.9667 180° South 155 178 2,100 1,842 Climbing KMEM
Thu 03:56:54 PM 35.0000 -89.8667 90° East 280 322 4,200 2,308 Climbing KMEM
Thu 03:57:48 PM 35.0167 -89.8000 73° East 305 351 6,600 2,632 Climbing KMEM
Thu 03:58:48 PM 35.0667 -89.6833 62° Northeast 322 371 9,200 1,824 Climbing KMEM
Thu 03:59:53 PM 35.0986 -89.5728 71° East 352 405 10,400 1,680 Climbing Memphis Center
Thu 04:00:53 PM 35.1417 -89.4403 68° East 380 437 12,700 2,450 Climbing Memphis Center
Thu 04:01:53 PM 35.1844 -89.3103 68° East 408 470 15,300 2,300 Climbing Memphis Center
Thu 04:02:53 PM 35.2269 -89.1750 69° East 417 480 17,300 1,800 Climbing Memphis Center
Thu 04:03:53 PM 35.2778 -89.0369 66° East 431 496 18,900 1,750 Climbing Memphis Center
Thu 04:04:53 PM 35.3325 -88.8911 65° Northeast 451 519 20,800 1,850 Climbing Memphis Center
Thu 04:05:53 PM 35.3869 -88.7475 65° Northeast 464 534 22,600 1,300 Climbing Memphis Center
Thu 04:06:53 PM 35.4331 -88.6117 67° East 464 534 23,400 1,133 Climbing Memphis Center
Thu 04:13:18 PM 35.8180 -87.5800 67° East 537 618 31,000 1,172 Climbing FlightAware ADS-B
Thu 04:13:58 PM 35.8590 -87.4650 66° East 542 624 31,700 988 Climbing FlightAware ADS-B
Thu 04:14:43 PM 35.9060 -87.3340 66° East 545 627 32,400 918 Climbing FlightAware ADS-B
Thu 04:15:23 PM 35.9470 -87.2200 66° East 546 628 33,000 450 Climbing FlightAware ADS-B
Thu 04:16:03 PM 35.9870 -87.1060 67° East 544 626 33,000  Level FlightAware ADS-B
Thu 04:16:48 PM 36.0310 -86.9850 66° East 540 621 33,000  Level FlightAware ADS-B
Thu 04:17:28 PM 36.0720 -86.8660 67° East 540 621 33,000  Level FlightAware ADS-B
Thu 04:17:53 PM 36.0996 -86.7923 65° Northeast 546 628 33,000  Level FlightAware ADS-B
Thu 04:18:24 PM 36.1305 -86.7038 67° East 541 623 33,000  Level FlightAware ADS-B
Thu 04:18:57 PM 36.1620 -86.6106 67° East 533 613 33,000  Level FlightAware ADS-B
Thu 04:19:27 PM 36.1894 -86.5227 69° East 533 613 33,000  Level FlightAware ADS-B
Thu 04:20:06 PM 36.2249 -86.4142 68° East 535 616 33,000 379 Level FlightAware ADS-B
Thu 04:21:02 PM 36.2764 -86.2543 68° East 536 617 33,600 690 Climbing FlightAware ADS-B
Thu 04:21:33 PM 36.3046 -86.1657 68° East 537 618 34,000 938 Climbing FlightAware ADS-B
Thu 04:22:06 PM 36.3348 -86.0715 68° East 535 616 34,600 1,165 Climbing FlightAware ADS-B
Thu 04:23:16 PM 36.3975 -85.8726 69° East 521 600 36,000 1,107 Climbing FlightAware ADS-B
Thu 04:23:49 PM 36.4260 -85.7839 68° East 517 595 36,500 652 Climbing FlightAware ADS-B
Thu 04:24:48 PM 36.4730 -85.6350 69° East 517 595 37,000 303 Climbing FlightAware ADS-B
Thu 04:25:28 PM 36.5050 -85.5320 69° East 525 604 37,000  Level FlightAware ADS-B
Thu 04:25:52 PM 36.5339 -85.4414 68° East 532 612 37,000  Level FlightAware ADS-B
Thu 04:26:24 PM 36.5619 -85.3504 69° East 529 609 37,000  Level FlightAware ADS-B
Thu 04:26:54 PM 36.5885 -85.2655 69° East 527 606 37,000  Level FlightAware ADS-B
Thu 04:27:27 PM 36.6174 -85.1723 69° East 527 606 37,000  Level FlightAware ADS-B
Thu 04:28:00 PM 36.6458 -85.0797 69° East 518 596 37,000  Level FlightAware ADS-B
Thu 04:28:48 PM 36.6867 -84.9459 69° East 518 596 37,000  Level FlightAware ADS-B
Thu 04:29:22 PM 36.7158 -84.8506 69° East 522 601 37,000  Level FlightAware ADS-B
Thu 04:29:53 PM 36.7428 -84.7636 69° East 521 600 37,000  Level FlightAware ADS-B
Thu 04:30:24 PM 36.7695 -84.6739 70° East 521 600 37,000  Level FlightAware ADS-B
Thu 04:30:56 PM 36.7965 -84.5868 69° East 521 600 37,000  Level FlightAware ADS-B
Thu 04:31:27 PM 36.8230 -84.4972 70° East 517 595 37,000  Level FlightAware ADS-B
Thu 04:31:58 PM 36.8480 -84.4140 69° East 512 589 37,000  Level FlightAware ADS-B
Thu 04:32:29 PM 36.8736 -84.3284 69° East 509 586 37,000  Level FlightAware ADS-B
Thu 04:33:00 PM 36.8999 -84.2406 69° East 508 585 37,000  Level FlightAware ADS-B
Thu 04:33:53 PM 36.9380 -84.1160 69° East 507 583 37,000  Level FlightAware ADS-B
Thu 04:34:26 PM 36.9694 -84.0079 70° East 503 579 37,000  Level FlightAware ADS-B
Thu 04:34:56 PM 36.9939 -83.9263 69° East 503 579 37,000  Level FlightAware ADS-B
Thu 04:35:27 PM 37.0184 -83.8417 70° East 502 578 37,000  Level FlightAware ADS-B
Thu 04:35:59 PM 37.0448 -83.7519 70° East 503 579 37,000  Level FlightAware ADS-B
Thu 04:36:35 PM 37.0734 -83.6559 69° East 507 583 37,000  Level FlightAware ADS-B
Thu 04:37:06 PM 37.0984 -83.5703 70° East 509 586 37,000  Level FlightAware ADS-B
Thu 04:37:37 PM 37.1229 -83.4846 70° East 510 587 37,000  Level FlightAware ADS-B
Thu 04:38:37 PM 37.1715 -83.3175 70° East 510 587 37,000 63 Level FlightAware ADS-B
Thu 04:39:13 PM 37.1990 -83.2250 70° East 515 593 37,100 90 Climbing FlightAware ADS-B
Thu 04:39:44 PM 37.2257 -83.1295 71° East 515 593 37,100 -91 Level FlightAware ADS-B
Thu 04:40:19 PM 37.2540 -83.0314 70° East 513 590 37,000 -38 Descending FlightAware ADS-B
Thu 04:42:24 PM 37.3531 -82.6830 70° East 507 583 37,000  Level FlightAware ADS-B
Thu 04:42:56 PM 37.3781 -82.5939 71° East 508 585 37,000  Level FlightAware ADS-B
Thu 04:43:42 PM 37.4136 -82.4673 71° East 504 580 37,000  Level FlightAware ADS-B
Thu 04:44:22 PM 37.4441 -82.3574 71° East 501 577 37,000  Level FlightAware ADS-B
Thu 04:44:53 PM 37.4684 -82.2696 71° East 502 578 37,000  Level FlightAware ADS-B
Thu 04:45:25 PM 37.4927 -82.1842 70° East 500 575 37,000  Level FlightAware ADS-B
Thu 04:45:57 PM 37.5165 -82.0961 71° East 500 575 37,000  Level FlightAware ADS-B
Thu 04:46:28 PM 37.5380 -82.0170 71° East 500 575 37,000  Level FlightAware ADS-B
Thu 04:46:38 PM 37.5480 -81.9835 69° East 501 577 37,000  Level FlightAware ADS-B
Thu 04:47:08 PM 37.5707 -81.9010 71° East 500 575 37,000  Level FlightAware ADS-B
Thu 04:47:38 PM 37.5934 -81.8185 71° East 501 577 37,000  Level FlightAware ADS-B
Thu 04:48:09 PM 37.6170 -81.7300 71° East 503 579 37,000  Level FlightAware ADS-B
Thu 04:48:41 PM 37.6412 -81.6441 70° East 505 581 37,000  Level FlightAware ADS-B
Thu 04:49:12 PM 37.6638 -81.5576 72° East 504 580 37,000 98 Level FlightAware ADS-B
Thu 04:49:42 PM 37.6862 -81.4741 71° East 504 580 37,100 97 Climbing FlightAware ADS-B
Thu 04:50:14 PM 37.7108 -81.3851 71° East 505 581 37,100  Level FlightAware ADS-B
Thu 04:50:46 PM 37.7344 -81.2958 71° East 504 580 37,100 -95 Level FlightAware ADS-B
Thu 04:51:17 PM 37.7573 -81.2096 71° East 504 580 37,000 -78 Descending FlightAware ADS-B
Thu 04:52:03 PM 37.7830 -81.0810 76° East 508 585 37,000  Level FlightAware ADS-B
Thu 04:52:18 PM 37.7861 -81.0339 85° East 509 586 37,000  Level FlightAware ADS-B
Thu 04:53:23 PM 37.7990 -80.8460 85° East 504 580 37,000  Level FlightAware ADS-B
Thu 04:54:08 PM 37.8070 -80.7190 85° East 504 580 37,000  Level FlightAware ADS-B
Thu 04:54:48 PM 37.8150 -80.5990 85° East 502 578 37,000  Level FlightAware ADS-B
Thu 04:55:33 PM 37.8230 -80.4700 85° East 502 578 37,000  Level FlightAware ADS-B
Thu 04:56:13 PM 37.8310 -80.3480 85° East 503 579 37,000  Level FlightAware ADS-B
Thu 04:56:53 PM 37.8380 -80.2310 86° East 498 573 37,000 -141 Level FlightAware ADS-B
Thu 04:57:38 PM 37.8450 -80.1030 86° East 498 573 36,800 -1,059 Descending FlightAware ADS-B
Thu 04:58:18 PM 37.8520 -79.9870 86° East 499 574 35,500 -1,976 Descending FlightAware ADS-B
Thu 04:59:03 PM 37.8600 -79.8550 86° East 504 580 34,000 -1,765 Descending FlightAware ADS-B
Thu 04:59:43 PM 37.8670 -79.7380 86° East 502 578 33,000 -706 Descending FlightAware ADS-B
Thu 05:00:28 PM 37.8740 -79.6080 86° East 493 567 33,000  Level FlightAware ADS-B
Thu 05:01:08 PM 37.8800 -79.4990 86° East 495 570 33,000  Level FlightAware ADS-B
Thu 05:01:48 PM 37.8897 -79.4019 86° East 497 572 33,000  Level Washington Center
Thu 05:02:48 PM 37.8992 -79.2314 86° East 497 572 33,000 -208 Level Washington Center
Thu 05:08:03 PM 37.9950 -78.3160 86° East 501 577 31,700 -312 Descending FlightAware ADS-B
Thu 05:09:13 PM 38.0370 -78.1130 75° East 502 578 31,000 -436 Descending FlightAware ADS-B
Thu 05:09:53 PM 38.0750 -78.0290 60° Northeast 502 578 30,900 -720 Descending FlightAware ADS-B
Thu 05:11:18 PM 38.1860 -77.8090 57° Northeast 495 570 29,500 -844 Descending FlightAware ADS-B
Thu 05:12:08 PM 38.2520 -77.6750 58° Northeast 489 563 29,000 -333 Descending FlightAware ADS-B
Thu 05:12:48 PM 38.2980 -77.5820 58° Northeast 491 565 29,000  Level FlightAware ADS-B
Thu 05:13:53 PM 38.3720 -77.4300 58° Northeast 490 564 29,000  Level FlightAware ADS-B
Thu 05:14:33 PM 38.4220 -77.3300 57° Northeast 488 562 29,000  Level FlightAware ADS-B
Thu 05:15:13 PM 38.4700 -77.2320 58° Northeast 489 563 29,000  Level FlightAware ADS-B
Thu 05:15:58 PM 38.5210 -77.1270 58° Northeast 489 563 29,000  Level FlightAware ADS-B
Thu 05:16:12 PM 38.5482 -77.0699 59° Northeast 491 565 29,000 -840 Level FlightAware ADS-B
Thu 05:16:48 PM 38.5840 -76.9960 58° Northeast 484 557 28,300 -2,051 Descending FlightAware ADS-B
Thu 05:17:31 PM 38.6407 -76.8790 58° Northeast 469 540 26,300 -2,400 Descending FlightAware ADS-B
Thu 05:18:08 PM 38.6750 -76.8090 58° Northeast 465 535 25,100 -2,421 Descending FlightAware ADS-B
Thu 05:18:28 PM 38.7024 -76.7444 61° Northeast 460 529 24,000 -2,323 Descending FlightAware ADS-B
Thu 05:19:10 PM 38.7274 -76.6365 73° East 449 517 22,700 -1,917 Descending FlightAware ADS-B
Thu 05:19:40 PM 38.7439 -76.5607 74° East 437 503 21,700 -1,900 Descending FlightAware ADS-B
Thu 05:20:10 PM 38.7598 -76.4841 75° East 428 493 20,800 -1,869 Descending FlightAware ADS-B
Thu 05:20:41 PM 38.7752 -76.4109 75° East 423 487 19,800 -1,869 Descending FlightAware ADS-B
Thu 05:21:11 PM 38.7903 -76.3363 75° East 418 481 18,900 -1,905 Descending FlightAware ADS-B
Thu 05:21:44 PM 38.8060 -76.2599 75° East 417 480 17,800 -1,913 Descending FlightAware ADS-B
Thu 05:22:20 PM 38.8239 -76.1750 75° East 408 470 16,700 -1,765 Descending FlightAware ADS-B
Thu 05:22:52 PM 38.8389 -76.0988 76° East 402 463 15,800 -1,688 Descending FlightAware ADS-B
Thu 05:23:24 PM 38.8542 -76.0277 75° East 398 458 14,900 -896 Descending FlightAware ADS-B
Thu 05:23:59 PM 38.8700 -75.9479 76° East 396 456 14,800 -91 Descending FlightAware ADS-B
Thu 05:24:30 PM 38.8852 -75.8776 74° East 398 458 14,800  Level FlightAware ADS-B
Thu 05:24:41 PM 38.8934 -75.8536 66° East 402 463 14,800  Level FlightAware ADS-B
Thu 05:24:50 PM 38.9032 -75.8355 55° Northeast 403 464 14,800  Level FlightAware ADS-B
Thu 05:24:57 PM 38.9108 -75.8226 53° Northeast 404 465 14,800  Level FlightAware ADS-B
Thu 05:25:08 PM 38.9268 -75.8049 41° Northeast 406 467 14,800 -714 Level FlightAware ADS-B
Thu 05:25:39 PM 38.9736 -75.7612 36° Northeast 405 466 14,300 -1,574 Descending FlightAware ADS-B
Thu 05:26:09 PM 39.0185 -75.7181 37° Northeast 400 460 13,200 -2,170 Descending FlightAware ADS-B
Thu 05:26:26 PM 39.0448 -75.6948 35° Northeast 396 456 12,600 -2,063 Descending FlightAware ADS-B
Thu 05:26:41 PM 39.0701 -75.6796 25° Northeast 393 452 12,100 -2,000 Descending FlightAware ADS-B
Thu 05:26:50 PM 39.0844 -75.6751 14° North 390 449 11,800 -1,714 Descending FlightAware ADS-B
Thu 05:27:02 PM 39.1064 -75.6720 North 382 440 11,500 -1,000 Descending FlightAware ADS-B
Thu 05:27:32 PM 39.1579 -75.6673 North 357 411 11,100 -800 Descending FlightAware ADS-B
Thu 05:28:02 PM 39.2062 -75.6603 North 338 389 10,700 -857 Descending FlightAware ADS-B
Thu 05:28:35 PM 39.2556 -75.6545 North 320 368 10,200 -913 Descending FlightAware ADS-B
Thu 05:28:48 PM 39.2749 -75.6519 North 319 367 10,000 -900 Descending FlightAware ADS-B
Thu 05:28:55 PM 39.2849 -75.6489 13° North 319 367 9,900 -857 Descending FlightAware ADS-B
Thu 05:29:02 PM 39.2937 -75.6441 23° Northeast 316 364 9,800 -500 Descending FlightAware ADS-B
Thu 05:29:07 PM 39.3009 -75.6387 30° Northeast 314 361 9,800  Level FlightAware ADS-B
Thu 05:29:11 PM 39.3056 -75.6357 26° Northeast 314 361 9,800 -500 Level FlightAware ADS-B
Thu 05:29:31 PM 39.3287 -75.6141 36° Northeast 314 361 9,600 -500 Descending FlightAware ADS-B
Thu 05:29:47 PM 39.3491 -75.5974 32° Northeast 317 365 9,500 -529 Descending FlightAware ADS-B
Thu 05:30:05 PM 39.3716 -75.5775 34° Northeast 319 367 9,300 -429 Descending FlightAware ADS-B
Thu 05:30:15 PM 39.3836 -75.5667 35° Northeast 317 365 9,300 -375 Level FlightAware ADS-B
Thu 05:30:21 PM 39.3896 -75.5607 38° Northeast 316 364 9,200 -857 Descending FlightAware ADS-B
Thu 05:30:29 PM 39.3987 -75.5489 45° Northeast 313 360 9,100 -462 Descending FlightAware ADS-B
Thu 05:30:34 PM 39.4025 -75.5432 49° Northeast 313 360 9,100 -300 Level FlightAware ADS-B
Thu 05:30:49 PM 39.4169 -75.5200 51° Northeast 312 359 9,000 -563 Descending FlightAware ADS-B
Thu 05:31:06 PM 39.4320 -75.4971 50° Northeast 313 360 8,800 -474 Descending FlightAware ADS-B
Thu 05:31:27 PM 39.4523 -75.4675 48° Northeast 313 360 8,700 -486 Descending FlightAware ADS-B
Thu 05:31:43 PM 39.4674 -75.4452 49° Northeast 312 359 8,500 -581 Descending FlightAware ADS-B
Thu 05:31:58 PM 39.4820 -75.4242 48° Northeast 308 354 8,400 -400 Descending FlightAware ADS-B
Thu 05:32:13 PM 39.4964 -75.4034 48° Northeast 308 354 8,300 -529 Descending FlightAware ADS-B
Thu 05:32:32 PM 39.5139 -75.3773 49° Northeast 303 349 8,100 -649 Descending FlightAware ADS-B
Thu 05:32:50 PM 39.5308 -75.3512 50° Northeast 301 346 7,900 -545 Descending FlightAware ADS-B
Thu 05:33:05 PM 39.5440 -75.3325 48° Northeast 299 344 7,800 -286 Descending FlightAware ADS-B
Thu 05:33:11 PM 39.5508 -75.3256 38° Northeast 300 345 7,800 -667 Level FlightAware ADS-B
Thu 05:33:14 PM 39.5544 -75.3226 33° Northeast 300 345 7,700 -545 Descending FlightAware ADS-B
Thu 05:33:22 PM 39.5645 -75.3165 25° Northeast 300 345 7,700 -462 Level FlightAware ADS-B
Thu 05:33:27 PM 39.5718 -75.3139 15° North 299 344 7,600 -545 Descending FlightAware ADS-B
Thu 05:33:33 PM 39.5789 -75.3131 North 298 343 7,600 -462 Level FlightAware ADS-B
Thu 05:33:40 PM 39.5888 -75.3140 356° North 296 341 7,500 -462 Descending FlightAware ADS-B
Thu 05:33:46 PM 39.5966 -75.3165 346° North 294 338 7,500 -667 Level FlightAware ADS-B
Thu 05:33:49 PM 39.6013 -75.3188 339° North 293 337 7,400 -632 Descending FlightAware ADS-B
Thu 05:34:05 PM 39.6205 -75.3284 339° North 289 333 7,300 -571 Descending FlightAware ADS-B
Thu 05:34:10 PM 39.6274 -75.3313 342° North 286 329 7,200 -375 Descending FlightAware ADS-B
Thu 05:34:21 PM 39.6410 -75.3370 342° North 276 318 7,200 -429 Level FlightAware ADS-B
Thu 05:34:38 PM 39.6614 -75.3447 344° North 261 300 7,000 -545 Descending FlightAware ADS-B
Thu 05:34:54 PM 39.6789 -75.3517 343° North 248 285 6,900 -387 Descending FlightAware ADS-B
Thu 05:35:09 PM 39.6956 -75.3590 341° North 237 273 6,800 -581 Descending FlightAware ADS-B
Thu 05:35:25 PM 39.7119 -75.3665 341° North 232 267 6,600 -500 Descending FlightAware ADS-B
Thu 05:35:33 PM 39.7188 -75.3712 332° Northwest 229 264 6,600 -400 Level FlightAware ADS-B
Thu 05:35:40 PM 39.7238 -75.3776 315° West 221 254 6,500 -600 Descending FlightAware ADS-B
Thu 05:35:43 PM 39.7258 -75.3807 310° West 216 249 6,500 -667 Level FlightAware ADS-B
Thu 05:35:49 PM 39.7282 -75.3875 295° West 206 237 6,400 -600 Descending FlightAware ADS-B
Thu 05:35:53 PM 39.7294 -75.3921 289° West 199 229 6,400 -857 Level FlightAware ADS-B
Thu 05:35:56 PM 39.7300 -75.3955 283° West 194 223 6,300 -857 Descending FlightAware ADS-B
Thu 05:36:00 PM 39.7304 -75.4000 277° West 188 216 6,300 -545 Level FlightAware ADS-B
Thu 05:36:07 PM 39.7304 -75.4077 270° West 178 205 6,200 -500 Descending FlightAware ADS-B
Thu 05:36:12 PM 39.7298 -75.4130 262° West 173 199 6,200  Level FlightAware ADS-B
Thu 05:36:17 PM 39.7288 -75.4180 255° West 168 193 6,200 -632 Level FlightAware ADS-B
Thu 05:36:31 PM 39.7258 -75.4314 254° West 169 194 6,000 -720 Descending FlightAware ADS-B
Thu 05:36:42 PM 39.7234 -75.4423 254° West 170 196 5,900 -522 Descending FlightAware ADS-B
Thu 05:36:54 PM 39.7208 -75.4542 254° West 172 198 5,800 -207 Descending FlightAware ADS-B
Thu 05:37:11 PM 39.7175 -75.4713 256° West 172 198 5,800 -176 Level FlightAware ADS-B
Thu 05:37:28 PM 39.7142 -75.4884 256° West 172 198 5,700 -375 Descending FlightAware ADS-B
Thu 05:37:43 PM 39.7112 -75.5034 255° West 171 197 5,600 -600 Descending FlightAware ADS-B
Thu 05:37:58 PM 39.7080 -75.5182 254° West 170 196 5,400 -692 Descending FlightAware ADS-B
Thu 05:38:09 PM 39.7057 -75.5291 255° West 171 197 5,300 -300 Descending FlightAware ADS-B
Thu 05:38:18 PM 39.7040 -75.5391 258° West 174 200 5,300 -500 Level FlightAware ADS-B
Thu 05:38:21 PM 39.7039 -75.5424 268° West 178 205 5,200 -1,000 Descending FlightAware ADS-B
Thu 05:38:24 PM 39.7043 -75.5457 279° West 183 211 5,200  Level FlightAware ADS-B
Thu 05:38:28 PM 39.7053 -75.5489 292° West 188 216 5,200 -667 Level FlightAware ADS-B
Thu 05:38:33 PM 39.7075 -75.5539 300° West 194 223 5,100 -750 Descending FlightAware ADS-B
Thu 05:38:36 PM 39.7098 -75.5574 311° West 202 232 5,100  Level FlightAware ADS-B
Thu 05:38:41 PM 39.7133 -75.5605 326° Northwest 207 238 5,100 -667 Level FlightAware ADS-B
Thu 05:38:45 PM 39.7164 -75.5630 328° Northwest 212 244 5,000 -857 Descending FlightAware ADS-B
Thu 05:38:48 PM 39.7192 -75.5646 336° Northwest 212 244 5,000 -545 Level FlightAware ADS-B
Thu 05:38:56 PM 39.7263 -75.5679 340° North 210 242 4,900 -522 Descending FlightAware ADS-B
Thu 05:39:11 PM 39.7405 -75.5737 343° North 205 236 4,800 -581 Descending FlightAware ADS-B
Thu 05:39:27 PM 39.7551 -75.5795 343° North 205 236 4,600 -968 Descending FlightAware ADS-B
Thu 05:39:42 PM 39.7688 -75.5850 343° North 205 236 4,300 -1,143 Descending FlightAware ADS-B
Thu 05:39:48 PM 39.7738 -75.5871 342° North 208 239 4,200 -1,000 Descending FlightAware ADS-B
Thu 05:39:54 PM 39.7797 -75.5877 356° North 212 244 4,100 -600 Descending FlightAware ADS-B
Thu 05:39:58 PM 39.7841 -75.5870 North 213 245 4,100 -600 Level FlightAware ADS-B
Thu 05:40:04 PM 39.7896 -75.5837 25° Northeast 211 243 4,000 -462 Descending FlightAware ADS-B
Thu 05:40:11 PM 39.7950 -75.5793 32° Northeast 208 239 4,000 -500 Level FlightAware ADS-B
Thu 05:40:16 PM 39.7982 -75.5737 53° Northeast 207 238 3,900 -667 Descending FlightAware ADS-B
Thu 05:40:20 PM 39.7996 -75.5706 60° Northeast 201 231 3,900 -667 Level FlightAware ADS-B
Thu 05:40:25 PM 39.8017 -75.5652 63° Northeast 197 227 3,800 -571 Descending FlightAware ADS-B
Thu 05:40:41 PM 39.8061 -75.5474 72° East 194 223 3,700 -261 Descending FlightAware ADS-B
Thu 05:40:48 PM 39.8080 -75.5395 73° East 194 223 3,700 -545 Level FlightAware ADS-B
Thu 05:41:03 PM 39.8115 -75.5217 76° East 189 217 3,500 -600 Descending FlightAware ADS-B
Thu 05:41:18 PM 39.8145 -75.5063 76° East 185 213 3,400 -667 Descending FlightAware ADS-B
Thu 05:41:30 PM 39.8172 -75.4936 75° East 183 211 3,200 -857 Descending FlightAware ADS-B
Thu 05:41:46 PM 39.8207 -75.4753 76° East 182 209 3,000 -938 Descending FlightAware ADS-B
Thu 05:42:02 PM 39.8240 -75.4597 75° East 178 205 2,700 -938 Descending FlightAware ADS-B
Thu 05:42:18 PM 39.8273 -75.4432 75° East 176 203 2,500 -909 Descending FlightAware ADS-B
Thu 05:42:35 PM 39.8307 -75.4258 76° East 174 200 2,200 -889 Descending FlightAware ADS-B
Thu 05:42:45 PM 39.8327 -75.4159 75° East 170 196 2,100 -889 Descending FlightAware ADS-B
Thu 05:43:02 PM 39.8360 -75.3991 76° East 166 191 1,800 -938 Descending FlightAware ADS-B
Thu 05:43:17 PM 39.8389 -75.3849 75° East 159 183 1,600 -1,000 Descending FlightAware ADS-B
Thu 05:43:32 PM 39.8416 -75.3714 75° East 148 170 1,300 -1,000 Descending FlightAware ADS-B
Thu 05:43:41 PM 39.8432 -75.3638 75° East 143 165 1,200 -720 Descending FlightAware ADS-B
Thu 05:43:57 PM 39.8457 -75.3509 76° East 135 155 1,000 -750 Descending FlightAware ADS-B

Login

Don't have an account? Register now (free) for customized features, flight alerts, and more!